createdAt,value
2022-12-25T00:00:03.701Z,0
2022-12-25T00:01:04.053Z,0
2022-12-25T00:02:04.244Z,0
2022-12-25T00:03:04.921Z,0
2022-12-25T00:04:05.521Z,0
2022-12-25T00:05:05.745Z,0
2022-12-25T00:06:05.911Z,0
2022-12-25T00:07:06.067Z,0
2022-12-25T00:08:06.262Z,0
2022-12-25T00:09:06.418Z,0
2022-12-25T00:10:06.567Z,0
2022-12-25T00:11:06.731Z,0
2022-12-25T00:12:06.888Z,0
2022-12-25T00:13:07.050Z,0
2022-12-25T00:14:07.208Z,0
2022-12-25T00:15:07.399Z,0
2022-12-25T00:16:07.701Z,0
2022-12-25T00:17:07.881Z,0
2022-12-25T00:18:08.074Z,0
2022-12-25T00:19:08.256Z,0
2022-12-25T00:20:08.400Z,0
2022-12-25T00:21:08.551Z,0
2022-12-25T00:22:08.705Z,0
2022-12-25T00:23:08.904Z,0
2022-12-25T00:24:09.113Z,0
2022-12-25T00:25:09.285Z,0
2022-12-25T00:26:09.492Z,0
2022-12-25T00:27:09.657Z,0
2022-12-25T00:28:09.802Z,0
2022-12-25T00:29:09.992Z,0
2022-12-25T00:30:10.222Z,0
2022-12-25T00:31:10.700Z,0
2022-12-25T00:32:10.892Z,0
2022-12-25T00:33:11.056Z,0
2022-12-25T00:34:11.224Z,0
2022-12-25T00:35:11.405Z,0
2022-12-25T00:36:11.559Z,0
2022-12-25T00:37:11.749Z,0
2022-12-25T00:38:11.907Z,0
2022-12-25T00:39:12.063Z,0
2022-12-25T00:40:12.237Z,0
2022-12-25T00:41:12.460Z,0
2022-12-25T00:42:12.822Z,0
2022-12-25T00:43:12.977Z,0
2022-12-25T00:44:13.133Z,0
2022-12-25T00:45:16.137Z,0
2022-12-25T00:46:16.712Z,0
2022-12-25T00:47:17.117Z,0
2022-12-25T00:48:17.292Z,0
2022-12-25T00:49:17.437Z,0
2022-12-25T00:50:17.592Z,0
2022-12-25T00:51:17.749Z,0
2022-12-25T00:52:17.903Z,0
2022-12-25T00:53:18.060Z,0
2022-12-25T00:54:18.222Z,0
2022-12-25T00:55:18.375Z,0
2022-12-25T00:56:18.534Z,0
2022-12-25T00:57:18.703Z,0
2022-12-25T00:58:18.866Z,0
2022-12-25T00:59:19.043Z,0
2022-12-25T01:00:19.195Z,0
2022-12-25T01:01:19.841Z,0
2022-12-25T01:02:20.434Z,0
2022-12-25T01:03:20.939Z,0
2022-12-25T01:04:21.133Z,0
2022-12-25T01:05:21.288Z,0
2022-12-25T01:06:21.456Z,0
2022-12-25T01:07:21.615Z,0
2022-12-25T01:08:21.763Z,0
2022-12-25T01:09:21.925Z,0
2022-12-25T01:10:22.118Z,0
2022-12-25T01:11:22.318Z,0
2022-12-25T01:12:22.474Z,0
2022-12-25T01:13:22.652Z,0
2022-12-25T01:14:22.837Z,0
2022-12-25T01:15:22.998Z,0
2022-12-25T01:16:23.236Z,0
2022-12-25T01:17:23.430Z,0
2022-12-25T01:18:23.606Z,0
2022-12-25T01:19:23.758Z,0
2022-12-25T01:20:23.911Z,0
2022-12-25T01:21:24.078Z,0.11
2022-12-25T01:22:24.232Z,0
2022-12-25T01:23:24.393Z,0
2022-12-25T01:24:24.547Z,0
2022-12-25T01:25:24.699Z,0
2022-12-25T01:26:24.868Z,0
2022-12-25T01:27:25.039Z,0
2022-12-25T01:28:25.209Z,0
2022-12-25T01:29:25.369Z,0
2022-12-25T01:30:25.535Z,0
2022-12-25T01:31:26.030Z,0
2022-12-25T01:32:26.253Z,0
2022-12-25T01:33:26.411Z,0
2022-12-25T01:34:26.598Z,0
2022-12-25T01:35:26.743Z,0
2022-12-25T01:36:26.934Z,0
2022-12-25T01:37:27.087Z,0
2022-12-25T01:38:27.247Z,0
2022-12-25T01:39:27.481Z,0
2022-12-25T01:40:27.631Z,0
2022-12-25T01:41:27.800Z,0
2022-12-25T01:42:27.950Z,0
2022-12-25T01:43:28.129Z,0
2022-12-25T01:44:28.298Z,0
2022-12-25T01:45:28.523Z,0
2022-12-25T01:46:28.709Z,0
2022-12-25T01:47:28.878Z,0
2022-12-25T01:48:29.031Z,0
2022-12-25T01:49:29.212Z,0
2022-12-25T01:50:29.370Z,0
2022-12-25T01:51:29.593Z,0
2022-12-25T01:52:29.803Z,0
2022-12-25T01:53:29.970Z,0
2022-12-25T01:54:30.118Z,0
2022-12-25T01:55:30.297Z,0
2022-12-25T01:56:30.462Z,0
2022-12-25T01:57:30.650Z,0
2022-12-25T01:58:30.807Z,0
2022-12-25T01:59:30.969Z,0
2022-12-25T02:00:31.144Z,0
2022-12-25T02:01:31.629Z,0
2022-12-25T02:02:32.409Z,0
2022-12-25T02:03:32.894Z,0
2022-12-25T02:04:33.082Z,0
2022-12-25T02:05:33.275Z,0
2022-12-25T02:06:33.453Z,0
2022-12-25T02:07:33.620Z,0
2022-12-25T02:08:33.777Z,0
2022-12-25T02:09:33.950Z,0
2022-12-25T02:10:34.095Z,0
2022-12-25T02:11:34.248Z,0
2022-12-25T02:12:34.412Z,0
2022-12-25T02:13:34.575Z,0
2022-12-25T02:14:34.729Z,0
2022-12-25T02:15:34.895Z,0
2022-12-25T02:16:59.181Z,0
2022-12-25T02:17:59.384Z,0
2022-12-25T02:18:59.545Z,0
2022-12-25T02:19:59.715Z,0
2022-12-25T02:20:59.885Z,0
2022-12-25T02:22:00.042Z,0
2022-12-25T02:23:00.244Z,0
2022-12-25T02:24:00.428Z,0
2022-12-25T02:25:00.603Z,0
2022-12-25T02:26:00.768Z,0
2022-12-25T02:27:00.931Z,0
2022-12-25T02:28:01.103Z,0
2022-12-25T02:29:01.252Z,0
2022-12-25T02:30:01.402Z,0
2022-12-25T02:31:01.557Z,0
2022-12-25T02:32:01.882Z,0
2022-12-25T02:33:02.065Z,0
2022-12-25T02:34:02.259Z,0
2022-12-25T02:35:02.420Z,0
2022-12-25T02:36:02.599Z,0
2022-12-25T02:37:02.748Z,0
2022-12-25T02:38:02.901Z,0
2022-12-25T02:39:03.060Z,0
2022-12-25T02:40:03.228Z,0
2022-12-25T02:41:03.391Z,0
2022-12-25T02:42:03.567Z,0
2022-12-25T02:43:03.741Z,0
2022-12-25T02:44:03.917Z,0
2022-12-25T02:45:04.077Z,0
2022-12-25T02:46:04.752Z,0
2022-12-25T02:47:04.935Z,0
2022-12-25T02:48:05.112Z,0
2022-12-25T02:49:05.275Z,0
2022-12-25T02:50:05.487Z,0
2022-12-25T02:51:05.639Z,0
2022-12-25T02:52:05.808Z,0
2022-12-25T02:53:05.998Z,0
2022-12-25T02:54:06.158Z,0
2022-12-25T02:55:06.333Z,0
2022-12-25T02:56:06.499Z,0
2022-12-25T02:57:06.653Z,0
2022-12-25T02:58:06.825Z,0
2022-12-25T02:59:06.980Z,0
2022-12-25T03:00:07.159Z,0
2022-12-25T03:01:07.429Z,0
2022-12-25T03:02:08.109Z,0
2022-12-25T03:03:08.502Z,0
2022-12-25T03:04:08.699Z,0
2022-12-25T03:05:08.883Z,0
2022-12-25T03:06:09.045Z,0
2022-12-25T03:07:09.188Z,0
2022-12-25T03:08:09.344Z,0
2022-12-25T03:09:09.494Z,0
2022-12-25T03:10:09.645Z,0
2022-12-25T03:11:09.804Z,0
2022-12-25T03:12:09.972Z,0
2022-12-25T03:13:10.128Z,0
2022-12-25T03:14:10.320Z,0
2022-12-25T03:15:10.476Z,0
2022-12-25T03:16:10.652Z,0
2022-12-25T03:17:11.096Z,0
2022-12-25T03:18:11.256Z,0
2022-12-25T03:19:11.426Z,0
2022-12-25T03:20:11.691Z,0
2022-12-25T03:21:11.845Z,0
2022-12-25T03:22:12.025Z,0
2022-12-25T03:23:12.207Z,0
2022-12-25T03:24:12.360Z,0
2022-12-25T03:25:12.519Z,0
2022-12-25T03:26:12.672Z,0
2022-12-25T03:27:12.834Z,0
2022-12-25T03:28:12.999Z,0
2022-12-25T03:29:13.150Z,0
2022-12-25T03:30:13.311Z,0
2022-12-25T03:31:14.078Z,0
2022-12-25T03:32:14.351Z,0
2022-12-25T03:33:46.156Z,0
2022-12-25T03:34:46.399Z,0
2022-12-25T03:35:46.568Z,0
2022-12-25T03:36:46.741Z,0
2022-12-25T03:37:46.906Z,0
2022-12-25T03:38:47.085Z,0
2022-12-25T03:39:47.236Z,0
2022-12-25T03:40:47.396Z,0
2022-12-25T03:41:47.559Z,0
2022-12-25T03:42:47.748Z,0
2022-12-25T03:43:47.903Z,0
2022-12-25T03:44:48.036Z,0
2022-12-25T03:45:48.370Z,0
2022-12-25T03:46:48.584Z,0
2022-12-25T03:47:48.745Z,0
2022-12-25T03:48:48.892Z,0
2022-12-25T03:49:49.035Z,0
2022-12-25T03:50:49.196Z,0
2022-12-25T03:51:49.354Z,0
2022-12-25T03:52:49.505Z,0
2022-12-25T03:53:49.673Z,0
2022-12-25T03:54:49.826Z,0
2022-12-25T03:55:49.987Z,0
2022-12-25T03:56:50.145Z,0
2022-12-25T03:57:50.313Z,0
2022-12-25T03:58:50.472Z,0
2022-12-25T03:59:50.623Z,0
2022-12-25T04:00:50.781Z,0
2022-12-25T04:01:51.221Z,0
2022-12-25T04:02:51.912Z,0
2022-12-25T04:03:52.235Z,0
2022-12-25T04:04:52.394Z,0
2022-12-25T04:05:52.547Z,0
2022-12-25T04:06:52.709Z,0
2022-12-25T04:07:52.888Z,0
2022-12-25T04:08:53.052Z,0
2022-12-25T04:09:53.444Z,0
2022-12-25T04:10:53.597Z,0
2022-12-25T04:12:03.373Z,0
2022-12-25T04:13:03.619Z,0
2022-12-25T04:14:03.795Z,0
2022-12-25T04:15:03.960Z,0
2022-12-25T04:16:04.299Z,0
2022-12-25T04:17:04.471Z,0
2022-12-25T04:18:04.646Z,0
2022-12-25T04:19:04.825Z,0
2022-12-25T04:20:04.984Z,0
2022-12-25T04:21:05.150Z,0
2022-12-25T04:22:05.303Z,0
2022-12-25T04:23:05.466Z,0
2022-12-25T04:24:05.613Z,0
2022-12-25T04:25:05.800Z,0
2022-12-25T04:26:05.953Z,0
2022-12-25T04:27:06.127Z,0
2022-12-25T04:28:06.296Z,0
2022-12-25T04:29:06.458Z,0
2022-12-25T04:30:06.636Z,0
2022-12-25T04:31:06.993Z,0
2022-12-25T04:32:07.189Z,0
2022-12-25T04:33:07.347Z,0
2022-12-25T04:34:07.525Z,0
2022-12-25T04:35:07.690Z,0
2022-12-25T04:36:07.876Z,0
2022-12-25T04:37:08.036Z,0
2022-12-25T04:38:08.192Z,0
2022-12-25T04:39:08.341Z,0
2022-12-25T04:40:08.500Z,0
2022-12-25T04:41:08.663Z,0
2022-12-25T04:42:08.822Z,0
2022-12-25T04:43:08.991Z,0
2022-12-25T04:44:09.195Z,0
2022-12-25T04:45:09.357Z,0
2022-12-25T04:46:09.663Z,0
2022-12-25T04:47:12.040Z,0
2022-12-25T04:48:12.195Z,0
2022-12-25T04:49:12.350Z,0
2022-12-25T04:50:12.522Z,0
2022-12-25T04:51:12.705Z,0
2022-12-25T04:52:12.899Z,0
2022-12-25T04:53:13.088Z,0
2022-12-25T04:54:13.252Z,0
2022-12-25T04:55:13.432Z,0
2022-12-25T04:56:13.614Z,0
2022-12-25T04:57:13.760Z,0
2022-12-25T04:58:13.920Z,0
2022-12-25T04:59:14.079Z,0
2022-12-25T05:00:14.338Z,0
2022-12-25T05:01:15.285Z,0
2022-12-25T05:02:15.920Z,0
2022-12-25T05:03:16.682Z,0
2022-12-25T05:04:16.890Z,0
2022-12-25T05:05:17.047Z,0
2022-12-25T05:06:17.212Z,0
2022-12-25T05:07:17.361Z,0
2022-12-25T05:08:17.515Z,0
2022-12-25T05:09:17.674Z,0
2022-12-25T05:10:17.854Z,0
2022-12-25T05:11:18.012Z,0
2022-12-25T05:12:18.228Z,0
2022-12-25T05:13:18.415Z,0
2022-12-25T05:14:18.852Z,0
2022-12-25T05:15:19.138Z,0
2022-12-25T05:16:19.988Z,0
2022-12-25T05:17:20.218Z,0
2022-12-25T05:18:20.408Z,0
2022-12-25T05:19:20.557Z,0
2022-12-25T05:20:20.715Z,0
2022-12-25T05:21:20.874Z,0
2022-12-25T05:22:21.055Z,0
2022-12-25T05:23:21.215Z,0
2022-12-25T05:24:21.377Z,0
2022-12-25T05:25:21.563Z,0
2022-12-25T05:26:21.720Z,0
2022-12-25T05:27:21.873Z,0
2022-12-25T05:28:22.035Z,0
2022-12-25T05:29:22.328Z,0
2022-12-25T05:30:22.484Z,0
2022-12-25T05:31:23.012Z,0
2022-12-25T05:32:23.178Z,0
2022-12-25T05:33:23.401Z,0
2022-12-25T05:34:23.655Z,0
2022-12-25T05:35:23.844Z,0
2022-12-25T05:36:24.003Z,0
2022-12-25T05:37:24.147Z,0
2022-12-25T05:38:24.306Z,0
2022-12-25T05:39:24.489Z,0
2022-12-25T05:40:24.703Z,0
2022-12-25T05:41:34.904Z,0
2022-12-25T05:42:35.167Z,0
2022-12-25T05:43:35.343Z,0
2022-12-25T05:44:35.511Z,0
2022-12-25T05:45:35.665Z,0
2022-12-25T05:46:36.012Z,0
2022-12-25T05:47:36.271Z,0
2022-12-25T05:48:36.423Z,0
2022-12-25T05:49:36.581Z,0.41
2022-12-25T05:50:36.735Z,0
2022-12-25T05:51:36.897Z,0
2022-12-25T05:52:37.062Z,0
2022-12-25T05:53:37.238Z,0
2022-12-25T05:54:37.410Z,0
2022-12-25T05:55:37.607Z,0
2022-12-25T05:56:37.793Z,0
2022-12-25T05:57:37.968Z,0
2022-12-25T05:58:38.138Z,0
2022-12-25T05:59:38.317Z,0
2022-12-25T06:00:38.473Z,0
2022-12-25T06:01:39.015Z,0
2022-12-25T06:02:40.079Z,0
2022-12-25T06:03:40.697Z,0.25
2022-12-25T06:04:40.886Z,0
2022-12-25T06:05:41.075Z,0
2022-12-25T06:06:41.242Z,0
2022-12-25T06:07:41.422Z,0
2022-12-25T06:08:41.633Z,0
2022-12-25T06:09:41.783Z,0
2022-12-25T06:10:41.957Z,0
2022-12-25T06:11:42.128Z,0
2022-12-25T06:12:42.296Z,0
2022-12-25T06:13:42.508Z,0
2022-12-25T06:14:42.672Z,0
2022-12-25T06:15:42.851Z,0
2022-12-25T06:16:43.359Z,0
2022-12-25T06:17:43.555Z,0
2022-12-25T06:18:43.745Z,0
2022-12-25T06:19:43.978Z,0
2022-12-25T06:20:44.121Z,0
2022-12-25T06:21:44.274Z,0
2022-12-25T06:22:44.702Z,0
2022-12-25T06:23:45.223Z,0
2022-12-25T06:24:45.415Z,0
2022-12-25T06:25:45.589Z,0
2022-12-25T06:26:45.756Z,0
2022-12-25T06:27:45.929Z,0
2022-12-25T06:28:46.103Z,0
2022-12-25T06:29:46.250Z,0
2022-12-25T06:30:46.408Z,0
2022-12-25T06:31:46.778Z,0
2022-12-25T06:32:46.972Z,0
2022-12-25T06:33:47.129Z,0
2022-12-25T06:34:47.275Z,0
2022-12-25T06:35:47.429Z,0
2022-12-25T06:36:47.594Z,0
2022-12-25T06:37:47.779Z,0
2022-12-25T06:38:47.942Z,0
2022-12-25T06:39:48.120Z,0
2022-12-25T06:40:48.301Z,0
2022-12-25T06:41:48.472Z,0
2022-12-25T06:42:48.635Z,0
2022-12-25T06:43:48.804Z,0
2022-12-25T06:44:48.951Z,0
2022-12-25T06:45:49.328Z,0
2022-12-25T06:46:49.539Z,0
2022-12-25T06:47:49.694Z,0
2022-12-25T06:48:50.392Z,0
2022-12-25T06:49:50.553Z,0
2022-12-25T06:50:50.710Z,0
2022-12-25T06:51:50.860Z,0
2022-12-25T06:52:51.013Z,0
2022-12-25T06:53:51.185Z,0
2022-12-25T06:54:51.370Z,0
2022-12-25T06:55:51.554Z,0
2022-12-25T06:56:51.721Z,0
2022-12-25T06:57:51.912Z,0
2022-12-25T06:58:52.071Z,0
2022-12-25T06:59:55.851Z,0
2022-12-25T07:00:56.159Z,0
2022-12-25T07:01:56.954Z,0
2022-12-25T07:02:57.689Z,0
2022-12-25T07:03:57.929Z,0
2022-12-25T07:04:58.094Z,0
2022-12-25T07:05:58.297Z,0
2022-12-25T07:07:09.542Z,0
2022-12-25T07:08:09.859Z,0
2022-12-25T07:09:10.022Z,0.16
2022-12-25T07:10:10.237Z,0.19
2022-12-25T07:11:10.395Z,0
2022-12-25T07:12:10.554Z,0
2022-12-25T07:13:10.709Z,0
2022-12-25T07:14:10.884Z,0
2022-12-25T07:15:11.048Z,0
2022-12-25T07:16:11.453Z,0
2022-12-25T07:17:11.669Z,0
2022-12-25T07:18:11.823Z,0
2022-12-25T07:19:11.979Z,0
2022-12-25T07:20:12.154Z,0
2022-12-25T07:21:12.494Z,0
2022-12-25T07:22:12.692Z,0
2022-12-25T07:23:12.856Z,0
2022-12-25T07:24:13.020Z,0
2022-12-25T07:25:13.201Z,0
2022-12-25T07:26:13.364Z,0
2022-12-25T07:27:13.566Z,0
2022-12-25T07:28:13.766Z,0
2022-12-25T07:29:13.939Z,0
2022-12-25T07:30:14.095Z,0
2022-12-25T07:31:14.726Z,0
2022-12-25T07:32:15.286Z,0.12
2022-12-25T07:33:15.476Z,0
2022-12-25T07:34:15.632Z,0
2022-12-25T07:35:15.779Z,0
2022-12-25T07:36:15.950Z,0
2022-12-25T07:37:16.116Z,0
2022-12-25T07:38:16.299Z,0
2022-12-25T07:39:16.504Z,0
2022-12-25T07:40:16.665Z,0.12
2022-12-25T07:41:16.843Z,0
2022-12-25T07:42:25.780Z,0
2022-12-25T07:43:25.957Z,0
2022-12-25T07:44:26.119Z,0
2022-12-25T07:45:26.362Z,0
2022-12-25T07:46:26.785Z,0
2022-12-25T07:47:26.970Z,0
2022-12-25T07:48:27.121Z,0
2022-12-25T07:49:27.282Z,0
2022-12-25T07:50:27.449Z,0
2022-12-25T07:51:27.669Z,0
2022-12-25T07:52:27.836Z,0
2022-12-25T07:53:27.996Z,0
2022-12-25T07:54:28.167Z,0.37
2022-12-25T07:55:28.343Z,0
2022-12-25T07:56:28.539Z,0
2022-12-25T07:57:28.707Z,0
2022-12-25T07:58:28.897Z,0
2022-12-25T07:59:29.055Z,0
2022-12-25T08:00:29.219Z,0.47
2022-12-25T08:01:30.614Z,0.22
2022-12-25T08:02:31.635Z,0.29
2022-12-25T08:03:32.907Z,0.16
2022-12-25T08:04:33.266Z,0.16
2022-12-25T08:05:33.429Z,0
2022-12-25T08:06:33.642Z,0
2022-12-25T08:07:33.816Z,0
2022-12-25T08:08:33.985Z,0
2022-12-25T08:09:34.142Z,0
2022-12-25T08:10:34.293Z,0.11
2022-12-25T08:11:34.445Z,0
2022-12-25T08:12:34.610Z,0.36
2022-12-25T08:13:34.771Z,0
2022-12-25T08:14:34.938Z,0.91
2022-12-25T08:15:35.099Z,0.66
2022-12-25T08:16:35.526Z,0.16
2022-12-25T08:17:35.740Z,0.31
2022-12-25T08:18:35.907Z,0.13
2022-12-25T08:19:36.077Z,0
2022-12-25T08:20:36.241Z,0
2022-12-25T08:21:36.468Z,0
2022-12-25T08:22:36.627Z,0
2022-12-25T08:23:36.785Z,0
2022-12-25T08:24:36.941Z,0
2022-12-25T08:25:37.129Z,0
2022-12-25T08:26:37.292Z,0.16
2022-12-25T08:27:37.458Z,0
2022-12-25T08:28:37.651Z,0.29
2022-12-25T08:29:37.812Z,0
2022-12-25T08:30:38.119Z,0
2022-12-25T08:31:46.965Z,0
2022-12-25T08:32:47.196Z,0
2022-12-25T08:33:47.340Z,0
2022-12-25T08:34:47.517Z,0
2022-12-25T08:35:47.684Z,0
2022-12-25T08:36:47.841Z,0
2022-12-25T08:37:47.994Z,0
2022-12-25T08:38:48.138Z,0
2022-12-25T08:39:48.309Z,0
2022-12-25T08:40:48.484Z,0
2022-12-25T08:41:48.637Z,0
2022-12-25T08:42:48.804Z,0
2022-12-25T08:43:48.971Z,0
2022-12-25T08:44:49.121Z,0
2022-12-25T08:45:49.572Z,0
2022-12-25T08:46:49.787Z,0
2022-12-25T08:47:49.937Z,0
2022-12-25T08:48:50.105Z,0
2022-12-25T08:49:50.781Z,0
2022-12-25T08:50:51.138Z,0
2022-12-25T08:51:51.309Z,0
2022-12-25T08:52:51.465Z,0
2022-12-25T08:53:51.631Z,0
2022-12-25T08:54:51.784Z,0
2022-12-25T08:55:51.938Z,0
2022-12-25T08:57:03.083Z,0
2022-12-25T08:58:03.333Z,0
2022-12-25T08:59:03.497Z,0
2022-12-25T09:00:03.658Z,0
2022-12-25T09:01:03.916Z,0
2022-12-25T09:02:04.501Z,0
2022-12-25T09:03:05.302Z,0
2022-12-25T09:04:05.592Z,0
2022-12-25T09:05:05.762Z,0
2022-12-25T09:06:05.922Z,0
2022-12-25T09:07:06.091Z,0
2022-12-25T09:08:06.262Z,0
2022-12-25T09:09:06.423Z,0
2022-12-25T09:10:06.608Z,0
2022-12-25T09:11:06.753Z,0
2022-12-25T09:12:06.933Z,0
2022-12-25T09:13:07.105Z,0
2022-12-25T09:14:07.270Z,0
2022-12-25T09:15:07.454Z,0
2022-12-25T09:16:07.884Z,0
2022-12-25T09:17:08.076Z,0
2022-12-25T09:18:08.236Z,0
2022-12-25T09:19:08.407Z,0
2022-12-25T09:20:08.591Z,0
2022-12-25T09:21:08.755Z,0
2022-12-25T09:22:08.960Z,0
2022-12-25T09:23:14.650Z,0
2022-12-25T09:24:14.807Z,0
2022-12-25T09:25:14.967Z,0
2022-12-25T09:26:15.184Z,0
2022-12-25T09:27:15.360Z,0
2022-12-25T09:28:15.517Z,0
2022-12-25T09:29:15.674Z,0
2022-12-25T09:30:15.839Z,0
2022-12-25T09:31:16.318Z,0
2022-12-25T09:32:16.507Z,0
2022-12-25T09:33:16.702Z,0
2022-12-25T09:34:19.456Z,0
2022-12-25T09:35:19.627Z,0
2022-12-25T09:36:19.777Z,0
2022-12-25T09:37:20.005Z,0
2022-12-25T09:38:20.172Z,0
2022-12-25T09:39:20.348Z,0
2022-12-25T09:40:20.804Z,0
2022-12-25T09:41:20.996Z,0
2022-12-25T09:42:21.156Z,0
2022-12-25T09:43:21.322Z,0
2022-12-25T09:44:21.484Z,0
2022-12-25T09:45:21.634Z,0
2022-12-25T09:46:22.135Z,0
2022-12-25T09:47:22.312Z,0
2022-12-25T09:48:22.482Z,0
2022-12-25T09:49:22.640Z,0
2022-12-25T09:50:22.831Z,0
2022-12-25T09:51:22.987Z,0
2022-12-25T09:52:23.143Z,0
2022-12-25T09:53:23.292Z,0
2022-12-25T09:54:23.461Z,0
2022-12-25T09:55:23.621Z,0
2022-12-25T09:56:23.779Z,0
2022-12-25T09:57:23.942Z,0
2022-12-25T09:58:24.089Z,0
2022-12-25T09:59:24.294Z,0
2022-12-25T10:00:24.472Z,0
2022-12-25T10:01:24.979Z,0
2022-12-25T10:02:25.751Z,0
2022-12-25T10:03:26.248Z,0
2022-12-25T10:04:26.505Z,0
2022-12-25T10:05:26.673Z,0
2022-12-25T10:06:26.845Z,0
2022-12-25T10:07:27.016Z,0
2022-12-25T10:08:27.193Z,0
2022-12-25T10:09:27.370Z,0
2022-12-25T10:10:27.518Z,0
2022-12-25T10:11:27.698Z,0
2022-12-25T10:12:27.849Z,0
2022-12-25T10:13:28.010Z,0
2022-12-25T10:14:28.189Z,0
2022-12-25T10:15:28.484Z,0
2022-12-25T10:16:28.963Z,0
2022-12-25T10:17:29.155Z,0
2022-12-25T10:18:29.321Z,0
2022-12-25T10:19:29.465Z,0
2022-12-25T10:20:29.624Z,0
2022-12-25T10:21:29.777Z,0
2022-12-25T10:22:29.930Z,0
2022-12-25T10:23:30.132Z,0
2022-12-25T10:24:30.287Z,0
2022-12-25T10:25:30.445Z,0
2022-12-25T10:26:30.620Z,0
2022-12-25T10:27:30.796Z,0
2022-12-25T10:28:30.967Z,0
2022-12-25T10:29:31.146Z,0.29
2022-12-25T10:30:31.304Z,0
2022-12-25T10:31:31.741Z,0
2022-12-25T10:32:31.922Z,0
2022-12-25T10:33:32.095Z,0
2022-12-25T10:34:32.254Z,0
2022-12-25T10:35:32.402Z,0
2022-12-25T10:36:32.578Z,0
2022-12-25T10:37:32.755Z,0
2022-12-25T10:38:32.940Z,0
2022-12-25T10:39:33.111Z,0
2022-12-25T10:40:33.283Z,0
2022-12-25T10:41:33.432Z,0
2022-12-25T10:42:33.582Z,0
2022-12-25T10:43:33.759Z,0
2022-12-25T10:44:33.918Z,0
2022-12-25T10:45:34.078Z,0
2022-12-25T10:46:34.491Z,0
2022-12-25T10:47:34.756Z,0
2022-12-25T10:48:34.924Z,0
2022-12-25T10:49:35.158Z,0
2022-12-25T10:50:35.320Z,0
2022-12-25T10:51:35.497Z,0
2022-12-25T10:52:35.674Z,0
2022-12-25T10:53:35.835Z,0
2022-12-25T10:54:35.998Z,0
2022-12-25T10:55:36.170Z,0.12
2022-12-25T10:56:36.340Z,0
2022-12-25T10:57:36.486Z,0.14
2022-12-25T10:58:36.651Z,0
2022-12-25T10:59:36.818Z,0
2022-12-25T11:00:36.980Z,0
2022-12-25T11:01:37.600Z,0
2022-12-25T11:02:38.450Z,0
2022-12-25T11:03:38.896Z,0
2022-12-25T11:04:39.121Z,0
2022-12-25T11:05:39.323Z,0
2022-12-25T11:06:39.481Z,0
2022-12-25T11:07:39.641Z,0
2022-12-25T11:08:39.818Z,0
2022-12-25T11:09:39.950Z,0
2022-12-25T11:10:40.119Z,0
2022-12-25T11:11:40.271Z,0
2022-12-25T11:12:40.435Z,0
2022-12-25T11:13:40.707Z,0
2022-12-25T11:14:40.898Z,0
2022-12-25T11:15:41.264Z,0
2022-12-25T11:16:41.675Z,0
2022-12-25T11:17:41.925Z,0.16
2022-12-25T11:18:42.085Z,0
2022-12-25T11:19:42.227Z,0
2022-12-25T11:20:47.432Z,0
2022-12-25T11:21:47.582Z,0
2022-12-25T11:22:47.732Z,0
2022-12-25T11:23:47.875Z,0
2022-12-25T11:24:48.068Z,0
2022-12-25T11:25:48.219Z,0
2022-12-25T11:26:48.383Z,0.35
2022-12-25T11:27:53.776Z,0.35
2022-12-25T11:28:53.929Z,0.95
2022-12-25T11:29:54.100Z,0.65
2022-12-25T11:30:54.356Z,0
2022-12-25T11:31:54.912Z,0
2022-12-25T11:32:55.079Z,0.39
2022-12-25T11:33:55.288Z,0.37
2022-12-25T11:34:55.499Z,0.28
2022-12-25T11:35:55.673Z,0.12
2022-12-25T11:36:55.881Z,0
2022-12-25T11:37:56.043Z,1.33
2022-12-25T11:38:56.194Z,0.62
2022-12-25T11:39:56.338Z,0
2022-12-25T11:40:56.487Z,0
2022-12-25T11:41:56.632Z,0
2022-12-25T11:43:07.773Z,0
2022-12-25T11:44:08.275Z,0
2022-12-25T11:45:08.430Z,0
2022-12-25T11:46:08.739Z,0
2022-12-25T11:47:08.924Z,0
2022-12-25T11:48:09.077Z,0.45
2022-12-25T11:49:09.235Z,0.23
2022-12-25T11:50:09.398Z,1.14
2022-12-25T11:51:09.551Z,0.34
2022-12-25T11:52:09.737Z,0.29
2022-12-25T11:53:09.894Z,0.22
2022-12-25T11:54:10.041Z,0.25
2022-12-25T11:55:10.201Z,0.75
2022-12-25T11:56:10.373Z,0.79
2022-12-25T11:57:10.529Z,0.76
2022-12-25T11:58:10.689Z,0.14
2022-12-25T11:59:18.792Z,0.14
2022-12-25T12:00:18.984Z,0.16
2022-12-25T12:01:19.383Z,0.56
2022-12-25T12:02:19.913Z,0.18
2022-12-25T12:03:20.802Z,1.2
2022-12-25T12:04:33.841Z,1.62
2022-12-25T12:05:37.012Z,1.45
2022-12-25T12:06:37.167Z,0.31
2022-12-25T12:07:37.332Z,0
2022-12-25T12:08:37.532Z,0.62
2022-12-25T12:09:37.693Z,0.25
2022-12-25T12:10:37.845Z,0.16
2022-12-25T12:11:38.002Z,0.45
2022-12-25T12:12:49.333Z,0.12
2022-12-25T12:13:49.526Z,1.54
2022-12-25T12:14:49.693Z,0.96
2022-12-25T12:15:49.851Z,0
2022-12-25T12:16:50.311Z,0.62
2022-12-25T12:17:50.511Z,0.52
2022-12-25T12:18:51.211Z,1.25
2022-12-25T12:19:51.376Z,0.66
2022-12-25T12:20:51.527Z,0.41
2022-12-25T12:21:51.703Z,0
2022-12-25T12:22:51.861Z,0.16
2022-12-25T12:23:52.025Z,0.47
2022-12-25T12:24:52.173Z,0
2022-12-25T12:25:52.318Z,0
2022-12-25T12:26:52.468Z,1.04
2022-12-25T12:27:52.623Z,0.25
2022-12-25T12:28:52.783Z,0.75
2022-12-25T12:29:52.950Z,0.22
2022-12-25T12:30:53.098Z,0.54
2022-12-25T12:31:53.408Z,0.22
2022-12-25T12:32:53.787Z,0.84
2022-12-25T12:33:55.213Z,0.48
2022-12-25T12:34:55.386Z,1.15
2022-12-25T12:35:55.617Z,1.12
2022-12-25T12:36:55.760Z,0.9
2022-12-25T12:37:55.917Z,0.66
2022-12-25T12:38:56.073Z,1.08
2022-12-25T12:39:56.270Z,1.16
2022-12-25T12:40:56.424Z,0.37
2022-12-25T12:41:56.585Z,0.7
2022-12-25T12:42:56.794Z,1.25
2022-12-25T12:43:56.953Z,0.95
2022-12-25T12:44:57.127Z,0.73
2022-12-25T12:45:57.458Z,0.95
2022-12-25T12:46:57.720Z,0.23
2022-12-25T12:47:57.885Z,0.46
2022-12-25T12:48:58.041Z,0.33
2022-12-25T12:49:58.268Z,0.45
2022-12-25T12:50:58.419Z,1.04
2022-12-25T12:51:58.573Z,0.27
2022-12-25T12:52:58.726Z,0.91
2022-12-25T12:53:58.888Z,0.18
2022-12-25T12:54:59.071Z,0.39
2022-12-25T12:55:59.265Z,0
2022-12-25T12:56:59.470Z,0
2022-12-25T12:57:59.634Z,0
2022-12-25T12:58:59.783Z,0.33
2022-12-25T13:00:11.199Z,0.7
2022-12-25T13:01:12.026Z,1.08
2022-12-25T13:02:12.535Z,0.16
2022-12-25T13:03:13.222Z,1.2
2022-12-25T13:04:13.419Z,1.25
2022-12-25T13:05:13.582Z,0.91
2022-12-25T13:06:13.735Z,0.73
2022-12-25T13:07:13.891Z,0.79
2022-12-25T13:08:14.060Z,0
2022-12-25T13:09:14.221Z,0.1
2022-12-25T13:10:14.376Z,1.12
2022-12-25T13:11:14.545Z,0.95
2022-12-25T13:12:14.703Z,0
2022-12-25T13:13:14.860Z,0.15
2022-12-25T13:14:15.019Z,0.25
2022-12-25T13:15:15.188Z,0.91
2022-12-25T13:16:15.520Z,0.83
2022-12-25T13:17:15.688Z,0.2
2022-12-25T13:18:15.843Z,0.54
2022-12-25T13:19:16.006Z,1.33
2022-12-25T13:20:16.164Z,0.83
2022-12-25T13:21:16.322Z,0.15
2022-12-25T13:22:16.492Z,1.16
2022-12-25T13:23:16.662Z,0.91
2022-12-25T13:24:16.821Z,0.74
2022-12-25T13:25:16.968Z,1.29
2022-12-25T13:26:17.132Z,0.89
2022-12-25T13:27:17.454Z,0.14
2022-12-25T13:28:17.791Z,1.33
2022-12-25T13:29:17.989Z,0.53
2022-12-25T13:30:18.155Z,0.2
2022-12-25T13:31:18.519Z,0.62
2022-12-25T13:32:19.119Z,0.44
2022-12-25T13:33:19.720Z,0
2022-12-25T13:34:19.930Z,0.1
2022-12-25T13:35:20.079Z,0.16
2022-12-25T13:36:20.236Z,0
2022-12-25T13:37:20.400Z,0.45
2022-12-25T13:38:20.555Z,0.83
2022-12-25T13:39:20.746Z,1
2022-12-25T13:40:20.908Z,0.12
2022-12-25T13:41:21.044Z,0.75
2022-12-25T13:42:21.197Z,0.58
2022-12-25T13:43:21.356Z,0.2
2022-12-25T13:44:21.513Z,0.6
2022-12-25T13:45:21.692Z,0
2022-12-25T13:46:22.022Z,0
2022-12-25T13:47:22.248Z,0
2022-12-25T13:48:22.419Z,0.47
2022-12-25T13:49:22.565Z,0
2022-12-25T13:50:22.708Z,0.37
2022-12-25T13:51:22.869Z,0
2022-12-25T13:52:23.036Z,0
2022-12-25T13:53:23.210Z,0
2022-12-25T13:54:23.358Z,0.1
2022-12-25T13:55:23.544Z,0
2022-12-25T13:56:23.714Z,1.12
2022-12-25T13:57:23.881Z,0.67
2022-12-25T13:58:24.110Z,1.45
2022-12-25T13:59:24.270Z,1.41
2022-12-25T14:00:24.429Z,1.23
2022-12-25T14:01:25.014Z,1.66
2022-12-25T14:02:25.504Z,0.79
2022-12-25T14:03:25.907Z,0.91
2022-12-25T14:04:26.086Z,0.34
2022-12-25T14:05:26.231Z,0
2022-12-25T14:06:26.436Z,0
2022-12-25T14:07:26.635Z,0
2022-12-25T14:08:26.810Z,0
2022-12-25T14:09:26.988Z,0
2022-12-25T14:10:27.192Z,0
2022-12-25T14:11:27.365Z,0
2022-12-25T14:12:27.530Z,0
2022-12-25T14:13:27.713Z,0
2022-12-25T14:14:27.888Z,0
2022-12-25T14:15:28.055Z,0
2022-12-25T14:16:28.312Z,0
2022-12-25T14:17:28.473Z,0
2022-12-25T14:18:28.620Z,0
2022-12-25T14:19:28.789Z,0
2022-12-25T14:20:28.962Z,0
2022-12-25T14:21:29.148Z,0
2022-12-25T14:22:29.315Z,0
2022-12-25T14:23:29.468Z,0
2022-12-25T14:24:29.640Z,0
2022-12-25T14:25:29.813Z,0
2022-12-25T14:26:30.002Z,0
2022-12-25T14:27:30.169Z,0
2022-12-25T14:28:30.311Z,0
2022-12-25T14:29:30.459Z,0
2022-12-25T14:30:30.726Z,0
2022-12-25T14:31:30.915Z,0
2022-12-25T14:32:31.100Z,0
2022-12-25T14:33:31.255Z,0
2022-12-25T14:34:31.411Z,0
2022-12-25T14:35:31.561Z,0
2022-12-25T14:36:31.724Z,0